sensor_id;sensor_type;location;lat;lon;timestamp;pressure;altitude;pressure_sealevel;temperature;humidity
63204;BME280;49297;43.210;27.914;2022-07-12T00:02:05;101263.03;;;23.74;39.87
63204;BME280;49297;43.210;27.914;2022-07-12T00:04:30;101266.81;;;23.47;41.76
63204;BME280;49297;43.210;27.914;2022-07-12T00:06:56;101264.31;;;23.52;42.65
63204;BME280;49297;43.210;27.914;2022-07-12T00:09:22;101265.13;;;23.59;39.04
63204;BME280;49297;43.210;27.914;2022-07-12T00:11:47;101269.94;;;23.30;39.66
63204;BME280;49297;43.210;27.914;2022-07-12T00:14:13;101277.81;;;23.12;41.18
63204;BME280;49297;43.210;27.914;2022-07-12T00:16:39;101279.09;;;23.23;41.76
63204;BME280;49297;43.210;27.914;2022-07-12T00:19:05;101273.91;;;23.21;41.51
63204;BME280;49297;43.210;27.914;2022-07-12T00:21:31;101275.75;;;23.41;41.73
63204;BME280;49297;43.210;27.914;2022-07-12T00:23:57;101270.16;;;23.29;42.95
63204;BME280;49297;43.210;27.914;2022-07-12T00:26:22;101270.28;;;23.74;41.67
63204;BME280;49297;43.210;27.914;2022-07-12T00:28:48;101267.38;;;23.89;42.08
63204;BME280;49297;43.210;27.914;2022-07-12T00:31:14;101287.06;;;24.09;41.94
63204;BME280;49297;43.210;27.914;2022-07-12T00:33:40;101281.13;;;23.54;42.08
63204;BME280;49297;43.210;27.914;2022-07-12T00:36:06;101276.16;;;23.51;41.49
63204;BME280;49297;43.210;27.914;2022-07-12T00:38:32;101273.19;;;23.92;43.07
63204;BME280;49297;43.210;27.914;2022-07-12T00:40:58;101262.13;;;24.07;41.95
63204;BME280;49297;43.210;27.914;2022-07-12T00:43:24;101270.00;;;24.16;41.83
63204;BME280;49297;43.210;27.914;2022-07-12T00:45:49;101273.09;;;24.19;41.20
63204;BME280;49297;43.210;27.914;2022-07-12T00:48:17;101274.31;;;24.23;41.84
63204;BME280;49297;43.210;27.914;2022-07-12T00:50:44;101276.00;;;24.24;41.73
63204;BME280;49297;43.210;27.914;2022-07-12T00:53:12;101271.41;;;24.25;41.57
63204;BME280;49297;43.210;27.914;2022-07-12T00:55:38;101271.41;;;24.25;42.06
63204;BME280;49297;43.210;27.914;2022-07-12T00:58:04;101275.75;;;24.26;41.66
63204;BME280;49297;43.210;27.914;2022-07-12T01:00:30;101274.13;;;24.25;42.16
63204;BME280;49297;43.210;27.914;2022-07-12T01:02:58;101268.31;;;24.21;42.31
63204;BME280;49297;43.210;27.914;2022-07-12T01:05:27;101268.91;;;24.23;42.37
63204;BME280;49297;43.210;27.914;2022-07-12T01:07:53;101282.44;;;24.23;41.91
63204;BME280;49297;43.210;27.914;2022-07-12T01:10:20;101282.44;;;24.23;42.25
63204;BME280;49297;43.210;27.914;2022-07-12T01:12:46;101277.44;;;24.27;42.19
63204;BME280;49297;43.210;27.914;2022-07-12T01:15:13;101276.81;;;24.25;42.40
63204;BME280;49297;43.210;27.914;2022-07-12T01:17:39;101274.94;;;24.25;42.32
63204;BME280;49297;43.210;27.914;2022-07-12T01:20:06;101274.94;;;24.25;42.62
63204;BME280;49297;43.210;27.914;2022-07-12T01:22:36;101276.59;;;24.26;42.43
63204;BME280;49297;43.210;27.914;2022-07-12T01:25:06;101284.94;;;24.25;42.55
63204;BME280;49297;43.210;27.914;2022-07-12T01:27:33;101275.75;;;24.26;42.64
63204;BME280;49297;43.210;27.914;2022-07-12T01:30:03;101283.66;;;24.27;42.67
63204;BME280;49297;43.210;27.914;2022-07-12T01:32:29;101273.06;;;24.26;42.73
63204;BME280;49297;43.210;27.914;2022-07-12T01:35:01;101283.06;;;24.25;42.84
63204;BME280;49297;43.210;27.914;2022-07-12T01:37:37;101277.44;;;24.27;42.92
63204;BME280;49297;43.210;27.914;2022-07-12T01:40:08;101276.22;;;24.23;43.06
63204;BME280;49297;43.210;27.914;2022-07-12T01:42:35;101279.53;;;24.25;42.95
63204;BME280;49297;43.210;27.914;2022-07-12T01:45:03;101270.34;;;24.26;42.80
63204;BME280;49297;43.210;27.914;2022-07-12T01:47:31;101276.59;;;24.26;42.57
63204;BME280;49297;43.210;27.914;2022-07-12T01:49:57;101279.31;;;24.26;42.88
63204;BME280;49297;43.210;27.914;2022-07-12T01:52:23;101275.59;;;24.21;43.40
63204;BME280;49297;43.210;27.914;2022-07-12T01:54:49;101277.03;;;24.23;43.05
63204;BME280;49297;43.210;27.914;2022-07-12T01:57:15;101272.22;;;24.25;43.16
63204;BME280;49297;43.210;27.914;2022-07-12T01:59:41;101283.25;;;24.24;43.33
63204;BME280;49297;43.210;27.914;2022-07-12T02:02:07;101275.59;;;24.21;43.65
63204;BME280;49297;43.210;27.914;2022-07-12T02:04:33;101279.13;;;24.21;42.67
63204;BME280;49297;43.210;27.914;2022-07-12T02:06:59;101277.66;;;24.19;43.66
63204;BME280;49297;43.210;27.914;2022-07-12T02:09:26;101278.72;;;24.18;43.33
63204;BME280;49297;43.210;27.914;2022-07-12T02:11:52;101282.66;;;24.22;43.65
63204;BME280;49297;43.210;27.914;2022-07-12T02:14:18;101280.75;;;24.22;43.60
63204;BME280;49297;43.210;27.914;2022-07-12T02:16:44;101281.81;;;24.21;43.24
63204;BME280;49297;43.210;27.914;2022-07-12T02:19:10;101273.31;;;24.18;43.87
63204;BME280;49297;43.210;27.914;2022-07-12T02:21:37;101286.44;;;24.14;43.15
63204;BME280;49297;43.210;27.914;2022-07-12T02:24:03;101285.41;;;24.08;43.03
63204;BME280;49297;43.210;27.914;2022-07-12T02:26:29;101283.31;;;24.10;43.47
63204;BME280;49297;43.210;27.914;2022-07-12T02:28:54;101288.34;;;24.07;44.08
63204;BME280;49297;43.210;27.914;2022-07-12T02:31:20;101279.81;;;24.03;43.99
63204;BME280;49297;43.210;27.914;2022-07-12T02:33:46;101276.06;;;24.04;44.29
63204;BME280;49297;43.210;27.914;2022-07-12T02:36:11;101291.84;;;24.07;43.67
63204;BME280;49297;43.210;27.914;2022-07-12T02:38:37;101288.56;;;23.99;44.24
63204;BME280;49297;43.210;27.914;2022-07-12T02:41:03;101287.47;;;24.06;44.15
63204;BME280;49297;43.210;27.914;2022-07-12T02:43:30;101290.44;;;24.05;43.21
63204;BME280;49297;43.210;27.914;2022-07-12T02:46:08;101288.97;;;23.95;42.75
63204;BME280;49297;43.210;27.914;2022-07-12T02:48:35;101291.91;;;23.94;43.79
63204;BME280;49297;43.210;27.914;2022-07-12T02:51:01;101292.09;;;23.99;43.85
63204;BME280;49297;43.210;27.914;2022-07-12T02:53:27;101294.78;;;23.99;44.32
63204;BME280;49297;43.210;27.914;2022-07-12T02:55:53;101290.03;;;23.94;44.46
63204;BME280;49297;43.210;27.914;2022-07-12T02:58:19;101293.56;;;23.95;44.11
63204;BME280;49297;43.210;27.914;2022-07-12T03:00:45;101307.47;;;23.99;43.91
63204;BME280;49297;43.210;27.914;2022-07-12T03:03:11;101299.59;;;23.97;44.27
63204;BME280;49297;43.210;27.914;2022-07-12T03:05:38;101303.75;;;24.00;44.56
63204;BME280;49297;43.210;27.914;2022-07-12T03:08:04;101298.16;;;23.94;44.44
63204;BME280;49297;43.210;27.914;2022-07-12T03:10:30;101300.19;;;23.99;44.31
63204;BME280;49297;43.210;27.914;2022-07-12T03:12:56;101305.59;;;23.99;44.24
63204;BME280;49297;43.210;27.914;2022-07-12T03:15:22;101305.59;;;23.99;43.27
63204;BME280;49297;43.210;27.914;2022-07-12T03:17:48;101307.47;;;23.99;43.27
63204;BME280;49297;43.210;27.914;2022-07-12T03:20:13;101307.28;;;24.00;44.42
63204;BME280;49297;43.210;27.914;2022-07-12T03:22:46;101308.75;;;23.96;44.66
63204;BME280;49297;43.210;27.914;2022-07-12T03:25:14;101313.31;;;24.02;44.63
63204;BME280;49297;43.210;27.914;2022-07-12T03:27:40;101313.31;;;24.02;44.50
63204;BME280;49297;43.210;27.914;2022-07-12T03:30:07;101306.00;;;24.03;44.47
63204;BME280;49297;43.210;27.914;2022-07-12T03:32:33;101313.50;;;24.07;44.33
63204;BME280;49297;43.210;27.914;2022-07-12T03:34:59;101314.13;;;24.03;44.56
63204;BME280;49297;43.210;27.914;2022-07-12T03:37:25;101315.59;;;24.05;44.46
63204;BME280;49297;43.210;27.914;2022-07-12T03:39:51;101322.88;;;24.05;43.92
63204;BME280;49297;43.210;27.914;2022-07-12T03:42:16;101325.13;;;24.08;44.42
63204;BME280;49297;43.210;27.914;2022-07-12T03:44:45;101316.41;;;24.06;44.37
63204;BME280;49297;43.210;27.914;2022-07-12T03:47:11;101323.91;;;24.10;44.49
63204;BME280;49297;43.210;27.914;2022-07-12T03:49:37;101319.72;;;24.08;43.85
63204;BME280;49297;43.210;27.914;2022-07-12T03:52:03;101327.84;;;24.08;44.17
63204;BME280;49297;43.210;27.914;2022-07-12T03:54:29;101323.03;;;24.10;44.27
63204;BME280;49297;43.210;27.914;2022-07-12T03:56:54;101319.72;;;24.08;43.53
63204;BME280;49297;43.210;27.914;2022-07-12T03:59:39;101319.91;;;24.13;44.07
63204;BME280;49297;43.210;27.914;2022-07-12T04:02:05;101317.44;;;24.11;43.92
63204;BME280;49297;43.210;27.914;2022-07-12T04:04:30;101318.69;;;24.09;42.74
63204;BME280;49297;43.210;27.914;2022-07-12T04:06:56;101324.09;;;24.09;44.30
63204;BME280;49297;43.210;27.914;2022-07-12T04:09:22;101316.59;;;24.11;44.13
63204;BME280;49297;43.210;27.914;2022-07-12T04:11:47;101324.09;;;24.16;43.90
63204;BME280;49297;43.210;27.914;2022-07-12T04:14:14;101331.34;;;24.15;43.82
63204;BME280;49297;43.210;27.914;2022-07-12T04:16:40;101324.31;;;24.14;44.05
63204;BME280;49297;43.210;27.914;2022-07-12T04:19:05;101324.72;;;24.11;43.69
63204;BME280;49297;43.210;27.914;2022-07-12T04:21:32;101321.38;;;24.16;43.25
63204;BME280;49297;43.210;27.914;2022-07-12T04:23:58;101328.88;;;24.13;43.24
63204;BME280;49297;43.210;27.914;2022-07-12T04:26:24;101327.22;;;24.12;42.74
63204;BME280;49297;43.210;27.914;2022-07-12T04:28:50;101325.53;;;24.11;42.60
63204;BME280;49297;43.210;27.914;2022-07-12T04:31:34;101333.84;;;24.10;43.91
63204;BME280;49297;43.210;27.914;2022-07-12T04:34:00;101328.69;;;24.08;43.91
63204;BME280;49297;43.210;27.914;2022-07-12T04:36:25;101340.94;;;24.18;44.01
63204;BME280;49297;43.210;27.914;2022-07-12T04:38:51;101336.16;;;24.13;43.97
63204;BME280;49297;43.210;27.914;2022-07-12T04:41:17;101339.66;;;24.20;43.39
63204;BME280;49297;43.210;27.914;2022-07-12T04:43:42;101337.00;;;24.13;42.13
63204;BME280;49297;43.210;27.914;2022-07-12T04:46:09;101328.44;;;24.17;42.43
63204;BME280;49297;43.210;27.914;2022-07-12T04:48:35;101336.56;;;24.17;42.29
63204;BME280;49297;43.210;27.914;2022-07-12T04:51:02;101330.72;;;24.20;42.48
63204;BME280;49297;43.210;27.914;2022-07-12T04:53:27;101334.47;;;24.19;43.54
63204;BME280;49297;43.210;27.914;2022-07-12T04:55:56;101332.00;;;24.17;41.87
63204;BME280;49297;43.210;27.914;2022-07-12T04:58:23;101330.72;;;24.20;43.16
63204;BME280;49297;43.210;27.914;2022-07-12T05:00:49;101333.63;;;24.18;43.33
63204;BME280;49297;43.210;27.914;2022-07-12T05:03:15;101332.81;;;24.18;41.93
63204;BME280;49297;43.210;27.914;2022-07-12T05:05:41;101328.63;;;24.22;41.84
63204;BME280;49297;43.210;27.914;2022-07-12T05:08:07;101327.19;;;24.19;41.99
63204;BME280;49297;43.210;27.914;2022-07-12T05:10:32;101338.44;;;24.16;42.01
63204;BME280;49297;43.210;27.914;2022-07-12T05:12:58;101332.84;;;24.11;42.04
63204;BME280;49297;43.210;27.914;2022-07-12T05:15:24;101324.91;;;24.23;43.02
63204;BME280;49297;43.210;27.914;2022-07-12T05:17:50;101334.03;;;24.28;42.06
63204;BME280;49297;43.210;27.914;2022-07-12T05:20:15;101334.69;;;24.17;42.14
63204;BME280;49297;43.210;27.914;2022-07-12T05:22:41;101332.22;;;24.02;40.64
63204;BME280;49297;43.210;27.914;2022-07-12T05:25:07;101335.38;;;23.92;42.51
63204;BME280;49297;43.210;27.914;2022-07-12T05:27:35;101336.56;;;24.10;41.33
63204;BME280;49297;43.210;27.914;2022-07-12T05:30:05;101333.66;;;24.11;41.36
63204;BME280;49297;43.210;27.914;2022-07-12T05:32:31;101338.69;;;24.01;40.80
63204;BME280;49297;43.210;27.914;2022-07-12T05:34:57;101341.00;;;23.91;40.97
63204;BME280;49297;43.210;27.914;2022-07-12T05:37:23;101334.13;;;23.62;39.81
63204;BME280;49297;43.210;27.914;2022-07-12T05:39:51;101342.88;;;23.84;40.46
63204;BME280;49297;43.210;27.914;2022-07-12T05:42:17;101341.00;;;23.84;39.92
63204;BME280;49297;43.210;27.914;2022-07-12T05:44:43;101339.53;;;23.75;39.20
63204;BME280;49297;43.210;27.914;2022-07-12T05:47:08;101332.06;;;23.57;38.39
63204;BME280;49297;43.210;27.914;2022-07-12T05:49:34;101337.88;;;23.47;38.40
63204;BME280;49297;43.210;27.914;2022-07-12T05:52:00;101341.22;;;23.63;39.26
63204;BME280;49297;43.210;27.914;2022-07-12T05:54:44;101348.47;;;23.49;39.11
63204;BME280;49297;43.210;27.914;2022-07-12T05:57:10;101339.75;;;23.47;38.03
63204;BME280;49297;43.210;27.914;2022-07-12T05:59:36;101346.16;;;23.19;39.18
63204;BME280;49297;43.210;27.914;2022-07-12T06:02:03;101342.44;;;23.20;38.91
63204;BME280;49297;43.210;27.914;2022-07-12T06:04:29;101333.31;;;23.41;39.51
63204;BME280;49297;43.210;27.914;2022-07-12T06:06:55;101343.31;;;23.41;39.42
63204;BME280;49297;43.210;27.914;2022-07-12T06:09:21;101338.91;;;23.66;39.44
63204;BME280;49297;43.210;27.914;2022-07-12T06:11:47;101334.38;;;23.60;38.27
63204;BME280;49297;43.210;27.914;2022-07-12T06:14:13;101343.69;;;23.64;39.69
63204;BME280;49297;43.210;27.914;2022-07-12T06:16:40;101355.16;;;23.46;39.90
63204;BME280;49297;43.210;27.914;2022-07-12T06:19:05;101338.50;;;23.69;39.90
63204;BME280;49297;43.210;27.914;2022-07-12T06:21:31;101343.09;;;23.82;39.52
63204;BME280;49297;43.210;27.914;2022-07-12T06:23:57;101339.94;;;23.92;39.18
63204;BME280;49297;43.210;27.914;2022-07-12T06:26:23;101350.59;;;23.87;38.79
63204;BME280;49297;43.210;27.914;2022-07-12T06:28:49;101344.28;;;23.80;38.87
63204;BME280;49297;43.210;27.914;2022-07-12T06:31:15;101345.53;;;24.04;39.45
63204;BME280;49297;43.210;27.914;2022-07-12T06:33:40;101347.19;;;24.11;39.30
63204;BME280;49297;43.210;27.914;2022-07-12T06:36:06;101349.94;;;23.91;38.03
63204;BME280;49297;43.210;27.914;2022-07-12T06:38:32;101341.22;;;23.89;38.85
63204;BME280;49297;43.210;27.914;2022-07-12T06:40:58;101342.22;;;24.08;38.80
63204;BME280;49297;43.210;27.914;2022-07-12T06:43:24;101339.06;;;24.11;38.72
63204;BME280;49297;43.210;27.914;2022-07-12T06:45:49;101332.28;;;23.89;38.56
63204;BME280;49297;43.210;27.914;2022-07-12T06:48:15;101339.09;;;23.98;39.23
63204;BME280;49297;43.210;27.914;2022-07-12T06:50:41;101329.09;;;24.12;39.19
63204;BME280;49297;43.210;27.914;2022-07-12T06:53:07;101337.16;;;24.19;38.24
63204;BME280;49297;43.210;27.914;2022-07-12T06:55:32;101332.00;;;24.10;38.51
63204;BME280;49297;43.210;27.914;2022-07-12T06:57:58;101325.59;;;23.91;38.28
63204;BME280;49297;43.210;27.914;2022-07-12T07:00:24;101333.09;;;23.83;38.11
63204;BME280;49297;43.210;27.914;2022-07-12T07:02:50;101325.38;;;24.00;38.73
63204;BME280;49297;43.210;27.914;2022-07-12T07:05:16;101328.44;;;24.10;37.91
63204;BME280;49297;43.210;27.914;2022-07-12T07:07:43;101322.88;;;23.98;37.64
63204;BME280;49297;43.210;27.914;2022-07-12T07:10:09;101321.00;;;23.99;37.98
63204;BME280;49297;43.210;27.914;2022-07-12T07:12:35;101322.44;;;24.08;37.76
63204;BME280;49297;43.210;27.914;2022-07-12T07:15:01;101317.47;;;24.05;37.94
63204;BME280;49297;43.210;27.914;2022-07-12T07:17:26;101310.19;;;23.92;36.68
63204;BME280;49297;43.210;27.914;2022-07-12T07:19:52;101321.41;;;23.95;37.09
63204;BME280;49297;43.210;27.914;2022-07-12T07:22:19;101311.47;;;23.89;36.98
63204;BME280;49297;43.210;27.914;2022-07-12T07:24:45;101314.56;;;24.00;36.76
63204;BME280;49297;43.210;27.914;2022-07-12T07:27:12;101309.78;;;24.02;37.40
63204;BME280;49297;43.210;27.914;2022-07-12T07:29:39;101321.38;;;24.16;36.55
63204;BME280;49297;43.210;27.914;2022-07-12T07:32:24;101309.28;;;24.25;36.91
63204;BME280;49297;43.210;27.914;2022-07-12T07:34:49;101318.44;;;24.24;36.96
63204;BME280;49297;43.210;27.914;2022-07-12T07:37:15;101313.81;;;24.31;36.93
63204;BME280;49297;43.210;27.914;2022-07-12T07:39:41;101313.59;;;24.32;37.65
63204;BME280;49297;43.210;27.914;2022-07-12T07:42:07;101313.78;;;24.44;37.75
63204;BME280;49297;43.210;27.914;2022-07-12T07:44:33;101319.38;;;24.49;37.12
63204;BME280;49297;43.210;27.914;2022-07-12T07:46:59;101321.47;;;24.47;38.07
63204;BME280;49297;43.210;27.914;2022-07-12T07:49:25;101327.53;;;24.36;37.00
63204;BME280;49297;43.210;27.914;2022-07-12T07:51:50;101310.69;;;24.41;36.63
63204;BME280;49297;43.210;27.914;2022-07-12T07:54:16;101310.41;;;24.49;36.85
63204;BME280;49297;43.210;27.914;2022-07-12T07:56:42;101316.03;;;24.54;38.02
63204;BME280;49297;43.210;27.914;2022-07-12T07:59:08;101322.47;;;24.60;36.54
63204;BME280;49297;43.210;27.914;2022-07-12T08:01:37;101315.81;;;24.56;36.06
63204;BME280;49297;43.210;27.914;2022-07-12T08:04:15;101325.84;;;24.42;36.18
63204;BME280;49297;43.210;27.914;2022-07-12T08:06:41;101325.41;;;24.58;37.04
63204;BME280;49297;43.210;27.914;2022-07-12T08:09:08;101312.31;;;24.55;36.25
63204;BME280;49297;43.210;27.914;2022-07-12T08:11:35;101309.31;;;24.63;37.24
63204;BME280;49297;43.210;27.914;2022-07-12T08:14:05;101314.06;;;24.75;37.58
63204;BME280;49297;43.210;27.914;2022-07-12T08:16:32;101311.97;;;24.77;36.67
63204;BME280;49297;43.210;27.914;2022-07-12T08:18:58;101320.13;;;24.70;35.67
63204;BME280;49297;43.210;27.914;2022-07-12T08:21:24;101317.16;;;24.78;36.19
63204;BME280;49297;43.210;27.914;2022-07-12T08:23:50;101310.88;;;24.84;36.30
63204;BME280;49297;43.210;27.914;2022-07-12T08:26:16;101302.50;;;24.93;36.78
63204;BME280;49297;43.210;27.914;2022-07-12T08:28:42;101308.16;;;24.84;35.11
63204;BME280;49297;43.210;27.914;2022-07-12T08:31:08;101297.81;;;24.75;35.29
63204;BME280;49297;43.210;27.914;2022-07-12T08:33:34;101301.97;;;24.77;35.79
63204;BME280;49297;43.210;27.914;2022-07-12T08:36:00;101299.22;;;24.84;35.24
63204;BME280;49297;43.210;27.914;2022-07-12T08:38:26;101311.53;;;24.80;35.86
63204;BME280;49297;43.210;27.914;2022-07-12T08:40:52;101308.13;;;24.91;36.69
63204;BME280;49297;43.210;27.914;2022-07-12T08:43:18;101301.69;;;24.92;35.35
63204;BME280;49297;43.210;27.914;2022-07-12T08:45:44;101307.03;;;24.99;35.19
63204;BME280;49297;43.210;27.914;2022-07-12T08:48:10;101294.81;;;24.89;34.97
63204;BME280;49297;43.210;27.914;2022-07-12T08:50:36;101294.38;;;24.93;35.19
63204;BME280;49297;43.210;27.914;2022-07-12T08:53:01;101299.75;;;24.99;35.16
63204;BME280;49297;43.210;27.914;2022-07-12T08:55:33;101304.06;;;25.07;35.52
63204;BME280;49297;43.210;27.914;2022-07-12T08:58:01;101299.84;;;25.11;34.95
63204;BME280;49297;43.210;27.914;2022-07-12T09:00:31;101301.53;;;25.12;34.67
63204;BME280;49297;43.210;27.914;2022-07-12T09:03:02;101291.94;;;25.09;35.43
63204;BME280;49297;43.210;27.914;2022-07-12T09:05:32;101296.50;;;25.16;35.12
63204;BME280;49297;43.210;27.914;2022-07-12T09:10:31;101301.09;;;25.15;35.91
63204;BME280;49297;43.210;27.914;2022-07-12T09:12:59;101293.34;;;25.19;36.46
63204;BME280;49297;43.210;27.914;2022-07-12T09:15:25;101284.75;;;25.22;35.47
63204;BME280;49297;43.210;27.914;2022-07-12T09:18:01;101283.06;;;25.27;35.83
63204;BME280;49297;43.210;27.914;2022-07-12T09:22:56;101274.34;;;25.25;33.67
63204;BME280;49297;43.210;27.914;2022-07-12T09:25:24;101273.69;;;25.30;35.07
63204;BME280;49297;43.210;27.914;2022-07-12T09:27:54;101285.06;;;25.39;35.29
63204;BME280;49297;43.210;27.914;2022-07-12T09:30:23;101289.22;;;25.41;34.27
63204;BME280;49297;43.210;27.914;2022-07-12T09:32:55;101283.78;;;25.41;35.20
63204;BME280;49297;43.210;27.914;2022-07-12T09:35:40;101292.69;;;25.49;35.30
63204;BME280;49297;43.210;27.914;2022-07-12T09:38:25;101282.06;;;25.47;35.88
63204;BME280;49297;43.210;27.914;2022-07-12T09:40:53;101285.47;;;25.42;36.41
63204;BME280;49297;43.210;27.914;2022-07-12T09:43:19;101280.00;;;25.49;36.94
63204;BME280;49297;43.210;27.914;2022-07-12T09:45:49;101275.16;;;25.51;37.65
63204;BME280;49297;43.210;27.914;2022-07-12T09:48:16;101283.28;;;25.51;35.95
63204;BME280;49297;43.210;27.914;2022-07-12T09:50:45;101287.66;;;25.52;35.54
63204;BME280;49297;43.210;27.914;2022-07-12T09:53:14;101279.28;;;25.54;36.38
63204;BME280;49297;43.210;27.914;2022-07-12T09:55:43;101280.97;;;25.55;36.87
63204;BME280;49297;43.210;27.914;2022-07-12T09:58:11;101269.44;;;25.59;35.47
63204;BME280;49297;43.210;27.914;2022-07-12T10:00:38;101265.41;;;25.69;35.89
63204;BME280;49297;43.210;27.914;2022-07-12T10:03:04;101279.56;;;25.71;36.01
63204;BME280;49297;43.210;27.914;2022-07-12T10:05:34;101267.44;;;25.73;34.21
63204;BME280;49297;43.210;27.914;2022-07-12T10:08:01;101264.66;;;25.80;34.89
63204;BME280;49297;43.210;27.914;2022-07-12T10:10:28;101252.97;;;25.79;35.69
63204;BME280;49297;43.210;27.914;2022-07-12T10:12:54;101260.75;;;25.76;35.54
63204;BME280;49297;43.210;27.914;2022-07-12T10:15:22;101262.16;;;25.78;35.04
63204;BME280;49297;43.210;27.914;2022-07-12T10:17:54;101259.16;;;25.87;34.82
63204;BME280;49297;43.210;27.914;2022-07-12T10:20:23;101264.31;;;25.88;34.47
63204;BME280;49297;43.210;27.914;2022-07-12T10:25:42;101249.50;;;25.91;34.85
63204;BME280;49297;43.210;27.914;2022-07-12T10:28:08;101244.69;;;25.93;35.53
63204;BME280;49297;43.210;27.914;2022-07-12T10:31:00;101251.25;;;26.03;35.82
63204;BME280;49297;43.210;27.914;2022-07-12T10:33:29;101248.47;;;26.10;35.22
63204;BME280;49297;43.210;27.914;2022-07-12T10:36:06;101247.91;;;26.20;35.47
63204;BME280;49297;43.210;27.914;2022-07-12T10:38:34;101240.34;;;26.22;35.16
63204;BME280;49297;43.210;27.914;2022-07-12T10:41:17;101233.06;;;26.23;35.05
63204;BME280;49297;43.210;27.914;2022-07-12T10:44:04;101240.63;;;26.20;35.07
63204;BME280;49297;43.210;27.914;2022-07-12T10:46:30;101232.47;;;26.20;35.63
63204;BME280;49297;43.210;27.914;2022-07-12T10:49:24;101232.22;;;26.22;36.07
63204;BME280;49297;43.210;27.914;2022-07-12T10:54:35;101231.78;;;26.25;34.67
63204;BME280;49297;43.210;27.914;2022-07-12T10:57:01;101233.00;;;26.29;35.04
63204;BME280;49297;43.210;27.914;2022-07-12T10:59:29;101229.44;;;26.29;35.89
63204;BME280;49297;43.210;27.914;2022-07-12T11:01:56;101228.28;;;26.36;35.82
63204;BME280;49297;43.210;27.914;2022-07-12T11:04:22;101224.06;;;26.40;35.89
63204;BME280;49297;43.210;27.914;2022-07-12T11:06:49;101218.06;;;26.50;35.59
63204;BME280;49297;43.210;27.914;2022-07-12T11:09:17;101213.94;;;26.48;35.65
63204;BME280;49297;43.210;27.914;2022-07-12T11:11:45;101217.81;;;26.52;35.43
63204;BME280;49297;43.210;27.914;2022-07-12T11:14:25;101213.56;;;26.56;34.76
63204;BME280;49297;43.210;27.914;2022-07-12T11:16:53;101207.41;;;26.49;35.63
63204;BME280;49297;43.210;27.914;2022-07-12T11:19:23;101213.22;;;26.52;35.86
63204;BME280;49297;43.210;27.914;2022-07-12T11:21:51;101206.50;;;26.55;34.96
63204;BME280;49297;43.210;27.914;2022-07-12T11:24:27;101215.94;;;26.52;34.92
63204;BME280;49297;43.210;27.914;2022-07-12T11:26:55;101209.53;;;26.47;35.54
63204;BME280;49297;43.210;27.914;2022-07-12T11:29:22;101203.34;;;26.58;35.95
63204;BME280;49297;43.210;27.914;2022-07-12T11:31:48;101204.63;;;26.55;35.93
63204;BME280;49297;43.210;27.914;2022-07-12T11:36:46;101208.72;;;26.46;36.89
63204;BME280;49297;43.210;27.914;2022-07-12T11:39:12;101204.59;;;26.44;36.92
63204;BME280;49297;43.210;27.914;2022-07-12T11:41:38;101198.13;;;26.56;36.30
63204;BME280;49297;43.210;27.914;2022-07-12T11:44:04;101205.28;;;26.69;35.80
63204;BME280;49297;43.210;27.914;2022-07-12T11:46:31;101206.94;;;26.70;36.19
63204;BME280;49297;43.210;27.914;2022-07-12T11:48:58;101212.72;;;26.74;36.18
63204;BME280;49297;43.210;27.914;2022-07-12T11:51:26;101218.84;;;26.69;35.59
63204;BME280;49297;43.210;27.914;2022-07-12T11:53:52;101220.38;;;26.77;35.68
63204;BME280;49297;43.210;27.914;2022-07-12T11:56:29;101213.19;;;26.71;36.21
63204;BME280;49297;43.210;27.914;2022-07-12T11:58:56;101214.72;;;26.67;35.42
63204;BME280;49297;43.210;27.914;2022-07-12T12:01:22;101212.06;;;26.60;34.90
63204;BME280;49297;43.210;27.914;2022-07-12T12:03:48;101221.50;;;26.57;34.99
63204;BME280;49297;43.210;27.914;2022-07-12T12:06:15;101210.03;;;26.55;34.08
63204;BME280;49297;43.210;27.914;2022-07-12T12:08:41;101215.69;;;26.54;35.35
63204;BME280;49297;43.210;27.914;2022-07-12T12:11:07;101220.69;;;26.57;35.41
63204;BME280;49297;43.210;27.914;2022-07-12T12:13:33;101223.03;;;26.53;36.15
63204;BME280;49297;43.210;27.914;2022-07-12T12:16:00;101212.53;;;26.57;35.96
63204;BME280;49297;43.210;27.914;2022-07-12T12:18:39;101212.69;;;26.62;35.77
63204;BME280;49297;43.210;27.914;2022-07-12T12:21:06;101212.69;;;26.62;35.58
63204;BME280;49297;43.210;27.914;2022-07-12T12:23:33;101212.91;;;26.60;35.45
63204;BME280;49297;43.210;27.914;2022-07-12T12:26:16;101204.38;;;26.57;36.09
63204;BME280;49297;43.210;27.914;2022-07-12T12:28:53;101200.84;;;26.56;36.29
63204;BME280;49297;43.210;27.914;2022-07-12T12:31:23;101203.44;;;26.51;36.01
63204;BME280;49297;43.210;27.914;2022-07-12T12:33:52;101199.19;;;26.44;35.43
63204;BME280;49297;43.210;27.914;2022-07-12T12:38:59;101207.03;;;26.64;35.53
63204;BME280;49297;43.210;27.914;2022-07-12T12:41:34;101201.16;;;26.67;35.10
63204;BME280;49297;43.210;27.914;2022-07-12T12:44:05;101197.00;;;26.64;35.19
63204;BME280;49297;43.210;27.914;2022-07-12T12:46:52;101199.72;;;26.64;35.23
63204;BME280;49297;43.210;27.914;2022-07-12T12:49:47;101201.59;;;26.64;35.75
63204;BME280;49297;43.210;27.914;2022-07-12T12:52:15;101200.00;;;26.56;35.75
63204;BME280;49297;43.210;27.914;2022-07-12T12:54:41;101197.44;;;26.61;34.87
63204;BME280;49297;43.210;27.914;2022-07-12T12:57:08;101187.56;;;26.67;35.00
63204;BME280;49297;43.210;27.914;2022-07-12T12:59:35;101193.81;;;26.79;35.04